Flight Track Log - Related Links

Times and Time Zones

All times are in EDT time to prevent confusion due to time zone crossing. See the CSN6998 flight status page for this flight to view local times or setup timezone preferences in your user account.

Time Position Orientation Groundspeed Altitude Reporting Facility
EDT Latitude Longitude Course Direction KTS MPH feet Rate Location/Type
Mon 08:50:39 PM 31.2085 121.3320 358° North 161 185 500  Level FlightAware ADS-B (ZSSS / SHA)
Mon 08:50:55 PM 31.2199 121.3306 346° North 163 188 1,200 2,000 Climbing FlightAware ADS-B (ZSSS / SHA)
Mon 08:51:00 PM 31.2237 121.3288 339° North 168 193 1,200 600 Level FlightAware ADS-B (ZSSS / SHA)
Mon 08:51:05 PM 31.2274 121.3261 323° Northwest 186 214 1,300 1,200 Climbing FlightAware ADS-B (ZSSS / SHA)
Mon 08:51:20 PM 31.2380 121.3145 318° Northwest 213 245 1,600 1,800 Climbing FlightAware ADS-B (ZSSS / SHA)
Mon 08:51:35 PM 31.2499 121.3024 320° Northwest 228 262 2,200 2,800 Climbing FlightAware ADS-B (ZSSS / SHA)
Mon 08:51:50 PM 31.2624 121.2906 322° Northwest 234 269 3,000 3,214 Climbing FlightAware ADS-B (ZSSS / SHA)
Mon 08:52:03 PM 31.2725 121.2811 322° Northwest 237 273 3,700 3,111 Climbing FlightAware ADS-B (ZSSS / SHA)
Mon 08:52:17 PM 31.2859 121.2690 322° Northwest 245 282 4,400 2,063 Climbing FlightAware ADS-B (ZSSS / SHA)
Mon 08:52:35 PM 31.2988 121.2569 322° Northwest 261 300 4,800 632 Climbing FlightAware ADS-B (ZSSS / SHA)
Mon 08:52:55 PM 31.3213 121.2362 322° Northwest 261 300 4,800  Level FlightAware ADS-B (ZSSS / SHA)
Mon 08:53:10 PM 31.3348 121.2242 322° Northwest 261 300 4,800  Level FlightAware ADS-B (ZSSS / SHA)
Mon 08:55:00 PM 31.4401 121.0481 305° West  Level Estimated
Mon 08:56:00 PM 31.4975 120.9518 305° West  Level Estimated
Mon 08:57:00 PM 31.5547 120.8555 305° West  Level Estimated
Mon 08:58:00 PM 31.6119 120.7590 305° West  Level Estimated
Mon 08:59:00 PM 31.6690 120.6624 305° West  Level Estimated
Mon 09:00:00 PM 31.7261 120.5657 305° West  Level Estimated
Mon 09:01:00 PM 31.7830 120.4689 305° West  Level Estimated
Mon 09:02:00 PM 31.8399 120.3719 305° West  Level Estimated
Mon 09:03:00 PM 31.8968 120.2749 305° West  Level Estimated
Mon 09:04:00 PM 31.9535 120.1777 305° West  Level Estimated
Mon 09:05:00 PM 32.0102 120.0804 305° West  Level Estimated
Mon 09:06:00 PM 32.0668 119.9830 304° West  Level Estimated
Mon 09:07:00 PM 32.1233 119.8854 304° West  Level Estimated
Mon 09:08:00 PM 32.1798 119.7878 304° West  Level Estimated
Mon 09:09:00 PM 32.2362 119.6900 304° West  Level Estimated
Mon 09:10:00 PM 32.2925 119.5921 304° West  Level Estimated
Mon 09:11:00 PM 32.3487 119.4940 304° West  Level Estimated
Mon 09:12:00 PM 32.4048 119.3959 304° West  Level Estimated
Mon 09:13:00 PM 32.4609 119.2976 304° West  Level Estimated
Mon 09:14:00 PM 32.5169 119.1992 304° West  Level Estimated
Mon 09:15:00 PM 32.5728 119.1007 304° West  Level Estimated
Mon 09:16:00 PM 32.6287 119.0020 304° West  Level Estimated
Mon 09:17:00 PM 32.6844 118.9033 304° West  Level Estimated
Mon 09:18:00 PM 32.7401 118.8044 304° West  Level Estimated
Mon 09:19:00 PM 32.7957 118.7054 304° West  Level Estimated
Mon 09:20:00 PM 32.8513 118.6062 304° West  Level Estimated
Mon 09:21:00 PM 32.9067 118.5070 304° West  Level Estimated
Mon 09:22:00 PM 32.9621 118.4076 304° West  Level Estimated
Mon 09:23:00 PM 33.0174 118.3081 304° West  Level Estimated
Mon 09:24:00 PM 33.0726 118.2085 303° West  Level Estimated
Mon 09:25:00 PM 33.1278 118.1087 303° West  Level Estimated
Mon 09:26:00 PM 33.1828 118.0088 303° West  Level Estimated
Mon 09:27:00 PM 33.2378 117.9088 303° West  Level Estimated
Mon 09:28:00 PM 33.2927 117.8087 303° West  Level Estimated
Mon 09:29:00 PM 33.3475 117.7084 303° West  Level Estimated
Mon 09:30:00 PM 33.4023 117.6080 303° West  Level Estimated
Mon 09:31:00 PM 33.4569 117.5075 303° West  Level Estimated
Mon 09:32:00 PM 33.5115 117.4069 303° West  Level Estimated
Mon 09:33:00 PM 33.5660 117.3061 303° West  Level Estimated
Mon 09:34:00 PM 33.6204 117.2052 303° West  Level Estimated
Mon 09:35:00 PM 33.6748 117.1042 303° West  Level Estimated
Mon 09:36:00 PM 33.7290 117.0030 303° West  Level Estimated
Mon 09:37:00 PM 33.7832 116.9017 303° West  Level Estimated
Mon 09:38:00 PM 33.8373 116.8003 303° West  Level Estimated
Mon 09:39:00 PM 33.8913 116.6988 303° West  Level Estimated
Mon 09:40:00 PM 33.9452 116.5971 303° West  Level Estimated
Mon 09:41:00 PM 33.9990 116.4953 303° West  Level Estimated
Mon 09:42:00 PM 34.0528 116.3934 302° West  Level Estimated
Mon 09:43:00 PM 34.1064 116.2914 302° West  Level Estimated
Mon 09:44:00 PM 34.1600 116.1892 302° West  Level Estimated
Mon 09:45:00 PM 34.2135 116.0869 302° West  Level Estimated
Mon 09:46:00 PM 34.2669 115.9844 302° West  Level Estimated
Mon 09:47:00 PM 34.3203 115.8819 302° West  Level Estimated
Mon 09:48:00 PM 34.3735 115.7792 302° West  Level Estimated
Mon 09:49:00 PM 34.4266 115.6763 302° West  Level Estimated
Mon 09:50:00 PM 34.4797 115.5734 302° West  Level Estimated
Mon 09:51:00 PM 34.5327 115.4703 302° West  Level Estimated
Mon 09:52:00 PM 34.5856 115.3671 302° West  Level Estimated
Mon 09:53:00 PM 34.6384 115.2637 302° West  Level Estimated
Mon 09:54:00 PM 34.6911 115.1602 302° West  Level Estimated
Mon 09:55:00 PM 34.7438 115.0566 302° West  Level Estimated
Mon 09:56:00 PM 34.7963 114.9529 302° West  Level Estimated
Mon 09:57:00 PM 34.8488 114.8490 302° West  Level Estimated
Mon 09:58:00 PM 34.9011 114.7450 302° West  Level Estimated
Mon 09:59:00 PM 34.9534 114.6408 302° West  Level Estimated
Mon 10:00:00 PM 35.0056 114.5365 301° West  Level Estimated
Mon 10:01:00 PM 35.0577 114.4321 301° West  Level Estimated
Mon 10:02:00 PM 35.1097 114.3276 301° West  Level Estimated
Mon 10:03:00 PM 35.1616 114.2229 301° West  Level Estimated
Mon 10:04:00 PM 35.2135 114.1181 301° West  Level Estimated
Mon 10:05:00 PM 35.2652 114.0131 301° West  Level Estimated
Mon 10:06:00 PM 35.3169 113.9081 301° West  Level Estimated
Mon 10:07:00 PM 35.3684 113.8028 301° West  Level Estimated
Mon 10:08:00 PM 35.4199 113.6975 301° West  Level Estimated
Mon 10:09:00 PM 35.4713 113.5920 301° West  Level Estimated
Mon 10:10:00 PM 35.5226 113.4864 301° West  Level Estimated
Mon 10:11:00 PM 35.5737 113.3806 301° West  Level Estimated
Mon 10:12:00 PM 35.6249 113.2747 301° West  Level Estimated
Mon 10:13:00 PM 35.6759 113.1687 301° West  Level Estimated
Mon 10:14:00 PM 35.7268 113.0626 301° West  Level Estimated
Mon 10:15:00 PM 35.7776 112.9563 301° West  Level Estimated
Mon 10:16:00 PM 35.8283 112.8498 300° West  Level Estimated
Mon 10:17:00 PM 35.8790 112.7433 300° West  Level Estimated
Mon 10:18:00 PM 35.9295 112.6366 300° West  Level Estimated
Mon 10:19:00 PM 35.9799 112.5297 300° West  Level Estimated
Mon 10:20:00 PM 36.0303 112.4228 300° West  Level Estimated
Mon 10:21:00 PM 36.0806 112.3156 300° West  Level Estimated
Mon 10:22:00 PM 36.1307 112.2084 300° West  Level Estimated
Mon 10:23:00 PM 36.1808 112.1010 300° West  Level Estimated
Mon 10:24:00 PM 36.2307 111.9935 300° West  Level Estimated
Mon 10:25:00 PM 36.2806 111.8858 300° West  Level Estimated
Mon 10:26:00 PM 36.3304 111.7780 300° West  Level Estimated
Mon 10:27:00 PM 36.3801 111.6701 300° West  Level Estimated
Mon 10:28:00 PM 36.4296 111.5620 300° West  Level Estimated
Mon 10:29:00 PM 36.4791 111.4538 300° West  Level Estimated
Mon 10:30:00 PM 36.5285 111.3454 300° West  Level Estimated
Mon 10:31:00 PM 36.5778 111.2370 300° West  Level Estimated
Mon 10:32:00 PM 36.6270 111.1283 299° West  Level Estimated
Mon 10:33:00 PM 36.6761 111.0195 299° West  Level Estimated
Mon 10:34:00 PM 36.7251 110.9107 299° West  Level Estimated
Mon 10:35:00 PM 36.7740 110.8016 299° West  Level Estimated
Mon 10:36:00 PM 36.8228 110.6924 299° West  Level Estimated
Mon 10:37:00 PM 36.8715 110.5831 299° West  Level Estimated
Mon 10:38:00 PM 36.9201 110.4736 299° West  Level Estimated
Mon 10:39:00 PM 36.9685 110.3640 299° West  Level Estimated
Mon 10:40:00 PM 37.0169 110.2543 299° West  Level Estimated
Mon 10:41:00 PM 37.0652 110.1444 299° West  Level Estimated
Mon 10:42:00 PM 37.1134 110.0344 299° West  Level Estimated
Mon 10:43:00 PM 37.1615 109.9242 299° West  Level Estimated
Mon 10:44:00 PM 37.2095 109.8139 299° West  Level Estimated
Mon 10:45:00 PM 37.2574 109.7035 299° West  Level Estimated
Mon 10:46:00 PM 37.3051 109.5929 299° West  Level Estimated
Mon 10:47:00 PM 37.3528 109.4822 298° West  Level Estimated
Mon 10:48:00 PM 37.4004 109.3713 298° West  Level Estimated
Mon 10:49:00 PM 37.4479 109.2603 298° West  Level Estimated
Mon 10:50:00 PM 37.4952 109.1492 298° West  Level Estimated
Mon 10:51:00 PM 37.5425 109.0379 298° West  Level Estimated
Mon 10:52:00 PM 37.5896 108.9265 298° West  Level Estimated
Mon 10:53:00 PM 37.6367 108.8149 298° West  Level Estimated
Mon 10:54:00 PM 37.6836 108.7032 298° West  Level Estimated
Mon 10:55:00 PM 37.7305 108.5913 298° West  Level Estimated
Mon 10:56:00 PM 37.7772 108.4794 298° West  Level Estimated
Mon 10:57:00 PM 37.8238 108.3672 298° West  Level Estimated
Mon 10:58:00 PM 37.8704 108.2550 298° West  Level Estimated
Mon 10:59:00 PM 37.9168 108.1425 298° West  Level Estimated
Mon 11:00:00 PM 37.9631 108.0300 298° West  Level Estimated
Mon 11:01:00 PM 38.0093 107.9173 298° West  Level Estimated
Mon 11:02:00 PM 38.0554 107.8045 297° West  Level Estimated
Mon 11:03:00 PM 38.1014 107.6915 297° West  Level Estimated
Mon 11:04:00 PM 38.1473 107.5783 297° West  Level Estimated
Mon 11:05:00 PM 38.1930 107.4651 297° West  Level Estimated
Mon 11:06:00 PM 38.2387 107.3517 297° West  Level Estimated
Mon 11:07:00 PM 38.2842 107.2381 297° West  Level Estimated
Mon 11:08:00 PM 38.3297 107.1244 297° West  Level Estimated
Mon 11:09:00 PM 38.3750 107.0106 297° West  Level Estimated
Mon 11:10:00 PM 38.4202 106.8966 297° West  Level Estimated
Mon 11:11:00 PM 38.4653 106.7825 297° West  Level Estimated
Mon 11:12:00 PM 38.5103 106.6682 297° West  Level Estimated
Mon 11:13:00 PM 38.5552 106.5538 297° West  Level Estimated
Mon 11:14:00 PM 38.6000 106.4393 297° West  Level Estimated
Mon 11:15:00 PM 38.6447 106.3246 297° West  Level Estimated
Mon 11:16:00 PM 38.6892 106.2097 296° West  Level Estimated
Mon 11:17:00 PM 38.7337 106.0947 296° West  Level Estimated
Mon 11:18:00 PM 38.7780 105.9796 296° West  Level Estimated
Mon 11:19:00 PM 38.8222 105.8644 296° West  Level Estimated
Mon 11:20:00 PM 38.8663 105.7489 296° West  Level Estimated
Mon 11:21:00 PM 38.9103 105.6334 296° West  Level Estimated
Mon 11:22:00 PM 38.9542 105.5177 296° West  Level Estimated
Mon 11:23:00 PM 38.9979 105.4019 296° West  Level Estimated
Mon 11:24:00 PM 39.0416 105.2859 296° West  Level Estimated
Mon 11:25:00 PM 39.0851 105.1698 296° West  Level Estimated
Mon 11:26:00 PM 39.1285 105.0535 296° West  Level Estimated
Mon 11:27:00 PM 39.1718 104.9371 296° West  Level Estimated
Mon 11:28:00 PM 39.2150 104.8205 296° West  Level Estimated
Mon 11:29:00 PM 39.2581 104.7038 296° West  Level Estimated
Mon 11:30:00 PM 39.3010 104.5870 295° West  Level Estimated
Mon 11:31:00 PM 39.3438 104.4700 295° West  Level Estimated
Mon 11:32:00 PM 39.3866 104.3529 295° West  Level Estimated
Mon 11:33:00 PM 39.4292 104.2356 295° West  Level Estimated
Mon 11:34:00 PM 39.4716 104.1182 295° West  Level Estimated
Mon 11:35:00 PM 39.5140 104.0006 295° West  Level Estimated
Mon 11:36:00 PM 39.5562 103.8829 295° West  Level Estimated
Mon 11:37:00 PM 39.5984 103.7651 295° West  Level Estimated
Mon 11:38:00 PM 39.6404 103.6471 295° West  Level Estimated
Mon 11:39:00 PM 39.6823 103.5290 295° West  Level Estimated
Mon 11:40:00 PM 39.7240 103.4107 295° West  Level Estimated
Mon 11:41:00 PM 39.7657 103.2923 295° West  Level Estimated
Mon 11:42:00 PM 39.8072 103.1738 295° West  Level Estimated
Mon 11:43:00 PM 39.8486 103.0551 294° West  Level Estimated
Mon 11:44:00 PM 39.8899 102.9362 294° West  Level Estimated
Mon 11:45:00 PM 39.9310 102.8172 294° West  Level Estimated
Mon 11:46:00 PM 39.9721 102.6981 294° West  Level Estimated
Mon 11:47:00 PM 40.0130 102.5788 294° West  Level Estimated
Mon 11:48:00 PM 40.0538 102.4594 294° West  Level Estimated
Mon 11:49:00 PM 40.0945 102.3398 294° West  Level Estimated
Mon 11:50:00 PM 40.1350 102.2201 294° West  Level Estimated
Mon 11:51:00 PM 40.1754 102.1003 294° West  Level Estimated
Mon 11:52:00 PM 40.2158 101.9803 294° West  Level Estimated
Mon 11:53:00 PM 40.2559 101.8602 294° West  Level Estimated
Mon 11:54:00 PM 40.2960 101.7399 294° West  Level Estimated
Mon 11:55:00 PM 40.3359 101.6195 294° West  Level Estimated
Mon 11:56:00 PM 40.3757 101.4989 293° West  Level Estimated
Mon 11:57:00 PM 40.4154 101.3782 293° West  Level Estimated
Mon 11:58:00 PM 40.4549 101.2574 293° West  Level Estimated
Mon 11:59:00 PM 40.4944 101.1364 293° West  Level Estimated
Tue 12:00:00 AM 40.5337 101.0153 293° West  Level Estimated
Tue 12:01:00 AM 40.5729 100.8940 293° West  Level Estimated
Tue 12:02:00 AM 40.6119 100.7726 293° West  Level Estimated
Tue 12:03:00 AM 40.6508 100.6510 293° West  Level Estimated
Tue 12:04:00 AM 40.6896 100.5294 293° West  Level Estimated
Tue 12:05:00 AM 40.7283 100.4075 293° West  Level Estimated
Tue 12:06:00 AM 40.7668 100.2855 293° West  Level Estimated
Tue 12:07:00 AM 40.8052 100.1634 293° West  Level Estimated
Tue 12:08:00 AM 40.8435 100.0412 293° West  Level Estimated
Tue 12:09:00 AM 40.8817 99.9188 292° West  Level Estimated
Tue 12:10:00 AM 40.9197 99.7962 292° West  Level Estimated
Tue 12:11:00 AM 40.9576 99.6735 292° West  Level Estimated
Tue 12:12:00 AM 40.9953 99.5507 292° West  Level Estimated
Tue 12:13:00 AM 41.0330 99.4277 292° West  Level Estimated
Tue 12:14:00 AM 41.0705 99.3046 292° West  Level Estimated
Tue 12:15:00 AM 41.1078 99.1814 292° West  Level Estimated
Tue 12:16:00 AM 41.1451 99.0580 292° West  Level Estimated
Tue 12:17:00 AM 41.1822 98.9345 292° West  Level Estimated
Tue 12:18:00 AM 41.2191 98.8108 292° West  Level Estimated
Tue 12:19:00 AM 41.2560 98.6870 292° West  Level Estimated
Tue 12:20:00 AM 41.2927 98.5631 292° West  Level Estimated
Tue 12:21:00 AM 41.3293 98.4390 291° West  Level Estimated
Tue 12:22:00 AM 41.3657 98.3148 291° West  Level Estimated
Tue 12:23:00 AM 41.4020 98.1904 291° West  Level Estimated
Tue 12:24:00 AM 41.4382 98.0659 291° West  Level Estimated
Tue 12:25:00 AM 41.4742 97.9413 291° West  Level Estimated
Tue 12:26:00 AM 41.5101 97.8165 291° West  Level Estimated
Tue 12:27:00 AM 41.5459 97.6916 291° West  Level Estimated
Tue 12:28:00 AM 41.5815 97.5666 291° West  Level Estimated
Tue 12:29:00 AM 41.6170 97.4414 291° West  Level Estimated
Tue 12:30:00 AM 41.6524 97.3160 291° West  Level Estimated
Tue 12:31:00 AM 41.6876 97.1906 291° West  Level Estimated
Tue 12:32:00 AM 41.7227 97.0650 291° West  Level Estimated
Tue 12:33:00 AM 41.7577 96.9392 290° West  Level Estimated
Tue 12:34:00 AM 41.7925 96.8133 290° West  Level Estimated
Tue 12:35:00 AM 41.8271 96.6873 290° West  Level Estimated
Tue 12:36:00 AM 41.8617 96.5612 290° West  Level Estimated
Tue 12:37:00 AM 41.8961 96.4349 290° West  Level Estimated
Tue 12:38:00 AM 41.9304 96.3085 290° West  Level Estimated
Tue 12:39:00 AM 41.9645 96.1819 290° West  Level Estimated
Tue 12:40:00 AM 41.9985 96.0552 290° West  Level Estimated
Tue 12:41:00 AM 42.0323 95.9284 290° West  Level Estimated
Tue 12:42:00 AM 42.0660 95.8015 290° West  Level Estimated
Tue 12:43:00 AM 42.0996 95.6743 290° West  Level Estimated
Tue 12:44:00 AM 42.1330 95.5471 290° West  Level Estimated
Tue 12:45:00 AM 42.1663 95.4198 289° West  Level Estimated
Tue 12:46:00 AM 42.1994 95.2923 289° West  Level Estimated
Tue 12:47:00 AM 42.2324 95.1646 289° West  Level Estimated
Tue 12:48:00 AM 42.2653 95.0369 289° West  Level Estimated
Tue 12:49:00 AM 42.2980 94.9090 289° West  Level Estimated
Tue 12:50:00 AM 42.3306 94.7809 289° West  Level Estimated
Tue 12:51:00 AM 42.3630 94.6528 289° West  Level Estimated
Tue 12:52:00 AM 42.3953 94.5245 289° West  Level Estimated
Tue 12:53:00 AM 42.4275 94.3960 289° West  Level Estimated
Tue 12:54:00 AM 42.4595 94.2675 289° West  Level Estimated
Tue 12:55:00 AM 42.4913 94.1388 289° West  Level Estimated
Tue 12:56:00 AM 42.5230 94.0100 289° West  Level Estimated
Tue 12:57:00 AM 42.5546 93.8810 288° West  Level Estimated
Tue 12:58:00 AM 42.5860 93.7520 288° West  Level Estimated
Tue 12:59:00 AM 42.6173 93.6227 288° West  Level Estimated
Tue 01:00:00 AM 42.6485 93.4934 288° West  Level Estimated
Tue 01:01:00 AM 42.6795 93.3639 288° West  Level Estimated
Tue 01:02:00 AM 42.7103 93.2343 288° West  Level Estimated
Tue 01:03:00 AM 42.7410 93.1046 288° West  Level Estimated
Tue 01:04:00 AM 42.7715 92.9747 288° West  Level Estimated
Tue 01:05:00 AM 42.8020 92.8448 288° West  Level Estimated
Tue 01:06:00 AM 42.8322 92.7147 288° West  Level Estimated
Tue 01:07:00 AM 42.8623 92.5844 288° West  Level Estimated
Tue 01:08:00 AM 42.8923 92.4540 287° West  Level Estimated
Tue 01:09:00 AM 42.9221 92.3235 287° West  Level Estimated
Tue 01:10:00 AM 42.9518 92.1929 287° West  Level Estimated
Tue 01:11:00 AM 42.9813 92.0622 287° West  Level Estimated
Tue 01:12:00 AM 43.0107 91.9313 287° West  Level Estimated
Tue 01:13:00 AM 43.0399 91.8003 287° West  Level Estimated
Tue 01:14:00 AM 43.0690 91.6692 287° West  Level Estimated
Tue 01:15:00 AM 43.0979 91.5380 287° West  Level Estimated
Tue 01:16:00 AM 43.1266 91.4066 287° West  Level Estimated
Tue 01:17:00 AM 43.1553 91.2751 287° West  Level Estimated
Tue 01:18:00 AM 43.1837 91.1435 287° West  Level Estimated
Tue 01:19:00 AM 43.2121 91.0118 286° West  Level Estimated
Tue 01:20:00 AM 43.2402 90.8799 286° West  Level Estimated
Tue 01:21:00 AM 43.2682 90.7479 286° West  Level Estimated
Tue 01:22:00 AM 43.2961 90.6158 286° West  Level Estimated
Tue 01:23:00 AM 43.3238 90.4836 286° West  Level Estimated
Tue 01:24:00 AM 43.3514 90.3513 286° West  Level Estimated
Tue 01:25:00 AM 43.3788 90.2188 286° West  Level Estimated
Tue 01:26:00 AM 43.4060 90.0862 286° West  Level Estimated
Tue 01:27:00 AM 43.4331 89.9535 286° West  Level Estimated
Tue 01:28:00 AM 43.4601 89.8207 286° West  Level Estimated
Tue 01:29:00 AM 43.4869 89.6878 286° West  Level Estimated
Tue 01:30:00 AM 43.5135 89.5547 285° West  Level Estimated
Tue 01:31:00 AM 43.5400 89.4216 285° West  Level Estimated
Tue 01:32:00 AM 43.5663 89.2883 285° West  Level Estimated
Tue 01:33:00 AM 43.5925 89.1549 285° West  Level Estimated
Tue 01:34:00 AM 43.6185 89.0213 285° West  Level Estimated
Tue 01:35:00 AM 43.6444 88.8877 285° West  Level Estimated
Tue 01:36:00 AM 43.6701 88.7540 285° West  Level Estimated
Tue 01:37:00 AM 43.6956 88.6201 285° West  Level Estimated
Tue 01:38:00 AM 43.7210 88.4861 285° West  Level Estimated
Tue 01:39:00 AM 43.7463 88.3520 285° West  Level Estimated
Tue 01:40:00 AM 43.7714 88.2178 285° West  Level Estimated
Tue 01:41:00 AM 43.7963 88.0835 284° West  Level Estimated
Tue 01:42:00 AM 43.8210 87.9491 284° West  Level Estimated
Tue 01:43:00 AM 43.8456 87.8146 284° West  Level Estimated
Tue 01:44:00 AM 43.8701 87.6799 284° West  Level Estimated
Tue 01:45:00 AM 43.8944 87.5451 284° West  Level Estimated
Tue 01:46:00 AM 43.9071 87.4742 284° West  Level Estimated
Tue 01:47:00 AM 43.9071 87.4742 North  Level Estimated
Tue 01:48:00 AM 43.9071 87.4742 North  Level Estimated
Tue 01:49:00 AM 43.9071 87.4742 North  Level Estimated
Tue 01:50:00 AM 43.9071 87.4742 North  Level Estimated
Tue 01:51:00 AM 43.9071 87.4742 North  Level Estimated
Tue 01:52:00 AM 43.9071 87.4742 North  Level Estimated
Tue 01:53:00 AM 43.9071 87.4742 North  Level Estimated
Tue 01:54:00 AM 43.9071 87.4742 North  Level Estimated
Tue 01:55:00 AM 43.9071 87.4742 North  Level Estimated

Login

Don't have an account? Register now (free) for customized features, flight alerts, and more!